sensor_id;sensor_type;location;lat;lon;timestamp;pressure;altitude;pressure_sealevel;temperature;humidity
74631;BME280;63138;55.082;38.804;2022-10-20T00:01:34;99268.44;;;5.06;90.21
74631;BME280;63138;55.082;38.804;2022-10-20T00:04:00;99266.25;;;5.01;90.49
74631;BME280;63138;55.082;38.804;2022-10-20T00:06:31;99266.88;;;4.95;90.29
74631;BME280;63138;55.082;38.804;2022-10-20T00:09:00;99269.41;;;4.96;90.82
74631;BME280;63138;55.082;38.804;2022-10-20T00:11:26;99275.41;;;4.90;90.71
74631;BME280;63138;55.082;38.804;2022-10-20T00:13:54;99268.34;;;4.89;91.02
74631;BME280;63138;55.082;38.804;2022-10-20T00:16:21;99277.72;;;4.85;91.53
74631;BME280;63138;55.082;38.804;2022-10-20T00:18:47;99280.28;;;4.87;91.41
74631;BME280;63138;55.082;38.804;2022-10-20T00:21:16;99276.22;;;4.83;91.84
74631;BME280;63138;55.082;38.804;2022-10-20T00:23:42;99284.81;;;4.86;91.65
74631;BME280;63138;55.082;38.804;2022-10-20T00:26:20;99283.56;;;4.81;91.73
74631;BME280;63138;55.082;38.804;2022-10-20T00:28:46;99287.97;;;4.82;92.12
74631;BME280;63138;55.082;38.804;2022-10-20T00:31:12;99294.19;;;4.82;92.26
74631;BME280;63138;55.082;38.804;2022-10-20T00:33:38;99299.56;;;4.82;92.16
74631;BME280;63138;55.082;38.804;2022-10-20T00:36:07;99288.41;;;4.77;92.00
74631;BME280;63138;55.082;38.804;2022-10-20T00:38:33;99298.88;;;4.80;91.96
74631;BME280;63138;55.082;38.804;2022-10-20T00:40:59;99305.28;;;4.79;92.16
74631;BME280;63138;55.082;38.804;2022-10-20T00:43:54;99305.28;;;4.79;92.21
74631;BME280;63138;55.082;38.804;2022-10-20T00:46:27;99307.25;;;4.77;92.30
74631;BME280;63138;55.082;38.804;2022-10-20T00:49:06;99299.34;;;4.75;92.40
74631;BME280;63138;55.082;38.804;2022-10-20T00:51:33;99301.88;;;4.77;92.07
74631;BME280;63138;55.082;38.804;2022-10-20T00:54:10;99309.09;;;4.76;92.15
74631;BME280;63138;55.082;38.804;2022-10-20T00:56:41;99316.34;;;4.76;92.55
74631;BME280;63138;55.082;38.804;2022-10-20T00:59:08;99317.16;;;4.76;92.57
74631;BME280;63138;55.082;38.804;2022-10-20T01:01:34;99323.38;;;4.77;92.37
74631;BME280;63138;55.082;38.804;2022-10-20T01:04:04;99315.50;;;4.75;92.59
74631;BME280;63138;55.082;38.804;2022-10-20T01:06:29;99330.47;;;4.78;92.54
74631;BME280;63138;55.082;38.804;2022-10-20T01:08:56;99327.78;;;4.78;92.58
74631;BME280;63138;55.082;38.804;2022-10-20T01:14:34;99331.78;;;4.74;92.53
74631;BME280;63138;55.082;38.804;2022-10-20T01:17:27;99331.94;;;4.72;92.68
74631;BME280;63138;55.082;38.804;2022-10-20T01:28:46;99356.28;;;4.71;92.91
74631;BME280;63138;55.082;38.804;2022-10-20T01:31:31;99349.19;;;4.70;93.32
74631;BME280;63138;55.082;38.804;2022-10-20T01:34:20;99364.22;;;4.72;93.45
74631;BME280;63138;55.082;38.804;2022-10-20T01:37:04;99359.66;;;4.73;93.18
74631;BME280;63138;55.082;38.804;2022-10-20T01:42:08;99347.81;;;4.66;92.71
74631;BME280;63138;55.082;38.804;2022-10-20T01:44:36;99359.97;;;4.70;93.19
74631;BME280;63138;55.082;38.804;2022-10-20T01:47:07;99361.97;;;4.68;92.65
74631;BME280;63138;55.082;38.804;2022-10-20T01:49:34;99371.75;;;4.69;92.87
74631;BME280;63138;55.082;38.804;2022-10-20T01:52:00;99378.78;;;4.70;92.61
74631;BME280;63138;55.082;38.804;2022-10-20T01:54:27;99371.03;;;4.67;92.32
74631;BME280;63138;55.082;38.804;2022-10-20T02:02:57;99394.47;;;4.74;92.33
74631;BME280;63138;55.082;38.804;2022-10-20T02:08:19;99401.88;;;4.72;92.13
74631;BME280;63138;55.082;38.804;2022-10-20T02:10:54;99398.78;;;4.67;92.61
74631;BME280;63138;55.082;38.804;2022-10-20T02:13:21;99403.31;;;4.67;92.01
74631;BME280;63138;55.082;38.804;2022-10-20T02:15:53;99410.38;;;4.68;92.70
74631;BME280;63138;55.082;38.804;2022-10-20T02:18:32;99413.22;;;4.66;92.77
74631;BME280;63138;55.082;38.804;2022-10-20T02:21:02;99415.75;;;4.68;92.76
74631;BME280;63138;55.082;38.804;2022-10-20T02:23:29;99418.16;;;4.71;92.50
74631;BME280;63138;55.082;38.804;2022-10-20T02:25:57;99425.22;;;4.72;92.51
74631;BME280;63138;55.082;38.804;2022-10-20T02:28:27;99419.13;;;4.70;92.73
74631;BME280;63138;55.082;38.804;2022-10-20T02:30:53;99420.00;;;4.70;92.66
74631;BME280;63138;55.082;38.804;2022-10-20T02:33:20;99421.47;;;4.65;92.60
74631;BME280;63138;55.082;38.804;2022-10-20T02:35:49;99426.84;;;4.65;92.83
74631;BME280;63138;55.082;38.804;2022-10-20T02:38:19;99421.13;;;4.68;92.85
74631;BME280;63138;55.082;38.804;2022-10-20T02:40:45;99427.53;;;4.67;92.46
74631;BME280;63138;55.082;38.804;2022-10-20T02:43:11;99422.28;;;4.65;92.90
74631;BME280;63138;55.082;38.804;2022-10-20T02:45:37;99427.53;;;4.67;92.90
74631;BME280;63138;55.082;38.804;2022-10-20T02:48:03;99438.84;;;4.70;92.61
74631;BME280;63138;55.082;38.804;2022-10-20T02:50:29;99441.38;;;4.72;92.39
74631;BME280;63138;55.082;38.804;2022-10-20T02:52:55;99437.13;;;4.69;92.28
74631;BME280;63138;55.082;38.804;2022-10-20T02:55:20;99447.44;;;4.74;92.66
74631;BME280;63138;55.082;38.804;2022-10-20T02:57:46;99443.88;;;4.73;92.55
74631;BME280;63138;55.082;38.804;2022-10-20T03:00:12;99444.75;;;4.74;91.83
74631;BME280;63138;55.082;38.804;2022-10-20T03:02:38;99442.06;;;4.74;92.60
74631;BME280;63138;55.082;38.804;2022-10-20T03:05:04;99447.13;;;4.77;91.72
74631;BME280;63138;55.082;38.804;2022-10-20T03:07:30;99450.81;;;4.76;91.95
74631;BME280;63138;55.082;38.804;2022-10-20T03:09:56;99448.13;;;4.76;91.83
74631;BME280;63138;55.082;38.804;2022-10-20T03:12:21;99452.50;;;4.77;92.07
74631;BME280;63138;55.082;38.804;2022-10-20T03:14:47;99458.59;;;4.79;92.33
74631;BME280;63138;55.082;38.804;2022-10-20T03:17:13;99457.03;;;4.76;92.05
74631;BME280;63138;55.082;38.804;2022-10-20T03:19:39;99473.19;;;4.76;91.96
74631;BME280;63138;55.082;38.804;2022-10-20T03:22:05;99462.72;;;4.73;92.29
74631;BME280;63138;55.082;38.804;2022-10-20T03:24:31;99467.81;;;4.76;92.44
74631;BME280;63138;55.082;38.804;2022-10-20T03:26:57;99474.03;;;4.77;92.16
74631;BME280;63138;55.082;38.804;2022-10-20T03:29:23;99472.06;;;4.79;92.54
74631;BME280;63138;55.082;38.804;2022-10-20T03:31:48;99474.56;;;4.81;92.50
74631;BME280;63138;55.082;38.804;2022-10-20T03:34:17;99466.66;;;4.79;92.78
74631;BME280;63138;55.082;38.804;2022-10-20T03:36:43;99478.28;;;4.79;92.32
74631;BME280;63138;55.082;38.804;2022-10-20T03:39:08;99473.47;;;4.73;92.67
74631;BME280;63138;55.082;38.804;2022-10-20T03:41:34;99486.09;;;4.73;93.14
74631;BME280;63138;55.082;38.804;2022-10-20T03:43:59;99487.09;;;4.72;93.37
74631;BME280;63138;55.082;38.804;2022-10-20T03:46:25;99496.16;;;4.71;93.05
74631;BME280;63138;55.082;38.804;2022-10-20T03:48:51;99501.53;;;4.71;93.35
74631;BME280;63138;55.082;38.804;2022-10-20T03:51:17;99497.31;;;4.68;93.49
74631;BME280;63138;55.082;38.804;2022-10-20T03:53:45;99500.00;;;4.68;93.67
74631;BME280;63138;55.082;38.804;2022-10-20T03:56:14;99503.53;;;4.69;93.45
74631;BME280;63138;55.082;38.804;2022-10-20T03:58:41;99501.81;;;4.68;93.30
74631;BME280;63138;55.082;38.804;2022-10-20T04:01:12;99494.78;;;4.67;93.44
74631;BME280;63138;55.082;38.804;2022-10-20T04:03:39;99499.00;;;4.69;93.40
74631;BME280;63138;55.082;38.804;2022-10-20T04:06:05;99512.56;;;4.68;93.73
74631;BME280;63138;55.082;38.804;2022-10-20T04:08:30;99515.28;;;4.68;93.79
74631;BME280;63138;55.082;38.804;2022-10-20T04:10:56;99514.56;;;4.66;93.63
74631;BME280;63138;55.082;38.804;2022-10-20T04:13:22;99514.00;;;4.72;93.63
74631;BME280;63138;55.082;38.804;2022-10-20T04:15:48;99520.78;;;4.66;93.58
74631;BME280;63138;55.082;38.804;2022-10-20T04:18:14;99528.44;;;4.71;93.82
74631;BME280;63138;55.082;38.804;2022-10-20T04:20:40;99511.88;;;4.66;93.44
74631;BME280;63138;55.082;38.804;2022-10-20T04:23:06;99523.88;;;4.71;93.29
74631;BME280;63138;55.082;38.804;2022-10-20T04:25:37;99522.75;;;4.74;92.87
74631;BME280;63138;55.082;38.804;2022-10-20T04:28:03;99526.44;;;4.73;93.13
74631;BME280;63138;55.082;38.804;2022-10-20T04:30:29;99530.69;;;4.75;92.99
74631;BME280;63138;55.082;38.804;2022-10-20T04:32:55;99521.06;;;4.73;93.00
74631;BME280;63138;55.082;38.804;2022-10-20T04:35:21;99526.16;;;4.76;92.52
74631;BME280;63138;55.082;38.804;2022-10-20T04:37:47;99527.81;;;4.77;92.61
74631;BME280;63138;55.082;38.804;2022-10-20T04:40:12;99540.28;;;4.78;92.76
74631;BME280;63138;55.082;38.804;2022-10-20T04:42:38;99539.31;;;4.79;91.91
74631;BME280;63138;55.082;38.804;2022-10-20T04:45:04;99546.34;;;4.80;91.95
74631;BME280;63138;55.082;38.804;2022-10-20T04:47:31;99545.38;;;4.81;91.91
74631;BME280;63138;55.082;38.804;2022-10-20T04:49:57;99548.75;;;4.83;91.97
74631;BME280;63138;55.082;38.804;2022-10-20T04:52:23;99555.81;;;4.84;91.39
74631;BME280;63138;55.082;38.804;2022-10-20T04:54:49;99559.06;;;4.88;91.52
74631;BME280;63138;55.082;38.804;2022-10-20T04:57:14;99554.00;;;4.85;91.50
74631;BME280;63138;55.082;38.804;2022-10-20T04:59:40;99555.81;;;4.84;91.70
74631;BME280;63138;55.082;38.804;2022-10-20T05:02:06;99567.69;;;4.91;91.56
74631;BME280;63138;55.082;38.804;2022-10-20T05:04:32;99568.53;;;4.92;91.39
74631;BME280;63138;55.082;38.804;2022-10-20T05:06:58;99573.06;;;4.91;91.71
74631;BME280;63138;55.082;38.804;2022-10-20T05:09:24;99577.75;;;4.89;91.83
74631;BME280;63138;55.082;38.804;2022-10-20T05:11:49;99574.06;;;4.90;91.99
74631;BME280;63138;55.082;38.804;2022-10-20T05:14:15;99577.59;;;4.91;91.95
74631;BME280;63138;55.082;38.804;2022-10-20T05:16:41;99570.91;;;4.95;92.00
74631;BME280;63138;55.082;38.804;2022-10-20T05:19:08;99581.78;;;5.03;91.73
74631;BME280;63138;55.082;38.804;2022-10-20T05:21:36;99582.63;;;5.04;91.31
74631;BME280;63138;55.082;38.804;2022-10-20T05:24:03;99579.66;;;5.07;91.23
74631;BME280;63138;55.082;38.804;2022-10-20T05:26:31;99592.50;;;5.13;91.05
74631;BME280;63138;55.082;38.804;2022-10-20T05:29:00;99590.81;;;5.12;90.46
74631;BME280;63138;55.082;38.804;2022-10-20T05:31:29;99595.72;;;5.16;90.24
74631;BME280;63138;55.082;38.804;2022-10-20T05:33:56;99605.81;;;5.14;89.81
74631;BME280;63138;55.082;38.804;2022-10-20T05:36:24;99598.59;;;5.15;90.37
74631;BME280;63138;55.082;38.804;2022-10-20T05:38:52;99595.72;;;5.16;89.95
74631;BME280;63138;55.082;38.804;2022-10-20T05:41:21;99604.69;;;5.17;90.21
74631;BME280;63138;55.082;38.804;2022-10-20T05:43:55;99601.78;;;5.28;89.68
74631;BME280;63138;55.082;38.804;2022-10-20T05:46:22;99597.88;;;5.41;89.45
74631;BME280;63138;55.082;38.804;2022-10-20T05:48:52;99595.31;;;5.39;88.28
74631;BME280;63138;55.082;38.804;2022-10-20T05:51:20;99610.16;;;5.43;87.71
74631;BME280;63138;55.082;38.804;2022-10-20T05:53:47;99607.72;;;5.50;87.47
74631;BME280;63138;55.082;38.804;2022-10-20T05:56:18;99618.41;;;5.60;87.66
74631;BME280;63138;55.082;38.804;2022-10-20T05:58:45;99623.38;;;5.64;87.18
74631;BME280;63138;55.082;38.804;2022-10-20T06:01:25;99622.34;;;5.65;87.62
74631;BME280;63138;55.082;38.804;2022-10-20T06:03:54;99622.75;;;5.70;87.06
74631;BME280;63138;55.082;38.804;2022-10-20T06:06:22;99632.13;;;5.66;87.33
74631;BME280;63138;55.082;38.804;2022-10-20T06:08:48;99638.84;;;5.62;87.54
74631;BME280;63138;55.082;38.804;2022-10-20T06:11:15;99632.56;;;5.62;88.20
74631;BME280;63138;55.082;38.804;2022-10-20T06:13:42;99635.59;;;5.59;87.72
74631;BME280;63138;55.082;38.804;2022-10-20T06:16:13;99643.69;;;5.59;88.20
74631;BME280;63138;55.082;38.804;2022-10-20T06:18:39;99644.22;;;5.62;87.67
74631;BME280;63138;55.082;38.804;2022-10-20T06:21:13;99643.81;;;5.57;87.70
74631;BME280;63138;55.082;38.804;2022-10-20T06:23:39;99639.97;;;5.60;87.57
74631;BME280;63138;55.082;38.804;2022-10-20T06:26:07;99649.28;;;5.65;88.02
74631;BME280;63138;55.082;38.804;2022-10-20T06:28:35;99639.06;;;5.69;86.72
74631;BME280;63138;55.082;38.804;2022-10-20T06:31:10;99652.38;;;5.70;86.36
74631;BME280;63138;55.082;38.804;2022-10-20T06:33:37;99653.28;;;5.61;86.33
74631;BME280;63138;55.082;38.804;2022-10-20T06:36:03;99666.16;;;5.67;85.97
74631;BME280;63138;55.082;38.804;2022-10-20T06:38:29;99656.53;;;5.65;85.70
74631;BME280;63138;55.082;38.804;2022-10-20T06:40:54;99670.78;;;5.75;86.62
74631;BME280;63138;55.082;38.804;2022-10-20T06:43:20;99666.94;;;5.78;86.40
74631;BME280;63138;55.082;38.804;2022-10-20T06:45:57;99663.50;;;5.85;85.77
74631;BME280;63138;55.082;38.804;2022-10-20T06:48:23;99670.53;;;5.96;85.36
74631;BME280;63138;55.082;38.804;2022-10-20T06:50:49;99659.88;;;5.94;85.04
74631;BME280;63138;55.082;38.804;2022-10-20T06:53:15;99665.31;;;5.85;85.56
74631;BME280;63138;55.082;38.804;2022-10-20T06:59:24;99678.16;;;6.01;85.55
74631;BME280;63138;55.082;38.804;2022-10-20T07:01:50;99674.19;;;5.95;84.66
74631;BME280;63138;55.082;38.804;2022-10-20T07:04:17;99671.25;;;5.88;85.20
74631;BME280;63138;55.082;38.804;2022-10-20T07:06:44;99674.09;;;5.87;84.90
74631;BME280;63138;55.082;38.804;2022-10-20T07:09:15;99681.09;;;5.80;85.00
74631;BME280;63138;55.082;38.804;2022-10-20T07:11:41;99676.03;;;5.77;85.41
74631;BME280;63138;55.082;38.804;2022-10-20T07:14:09;99683.09;;;5.78;85.79
74631;BME280;63138;55.082;38.804;2022-10-20T07:16:36;99688.09;;;5.90;85.93
74631;BME280;63138;55.082;38.804;2022-10-20T07:19:04;99689.97;;;5.90;85.70
74631;BME280;63138;55.082;38.804;2022-10-20T07:21:31;99685.88;;;5.86;85.92
74631;BME280;63138;55.082;38.804;2022-10-20T07:24:00;99686.03;;;5.84;84.88
74631;BME280;63138;55.082;38.804;2022-10-20T07:26:28;99687.56;;;5.87;85.57
74631;BME280;63138;55.082;38.804;2022-10-20T07:28:57;99685.59;;;5.89;85.23
74631;BME280;63138;55.082;38.804;2022-10-20T07:31:28;99684.69;;;5.98;84.79
74631;BME280;63138;55.082;38.804;2022-10-20T07:33:56;99688.78;;;6.02;84.38
74631;BME280;63138;55.082;38.804;2022-10-20T07:36:25;99694.56;;;6.07;83.76
74631;BME280;63138;55.082;38.804;2022-10-20T07:38:53;99684.22;;;6.03;84.15
74631;BME280;63138;55.082;38.804;2022-10-20T07:41:19;99706.97;;;5.90;84.12
74631;BME280;63138;55.082;38.804;2022-10-20T07:43:45;99698.81;;;5.82;84.29
74631;BME280;63138;55.082;38.804;2022-10-20T07:46:12;99690.66;;;5.92;84.58
74631;BME280;63138;55.082;38.804;2022-10-20T07:48:39;99687.13;;;5.91;84.92
74631;BME280;63138;55.082;38.804;2022-10-20T07:53:47;99685.59;;;5.89;83.40
74631;BME280;63138;55.082;38.804;2022-10-20T07:56:14;99680.91;;;5.91;83.63
74631;BME280;63138;55.082;38.804;2022-10-20T07:58:40;99695.06;;;5.93;84.01
74631;BME280;63138;55.082;38.804;2022-10-20T08:01:07;99697.84;;;6.01;84.22
74631;BME280;63138;55.082;38.804;2022-10-20T08:03:33;99703.72;;;5.97;83.25
74631;BME280;63138;55.082;38.804;2022-10-20T08:05:59;99713.34;;;5.99;82.72
74631;BME280;63138;55.082;38.804;2022-10-20T08:08:25;99706.66;;;6.03;82.84
74631;BME280;63138;55.082;38.804;2022-10-20T08:10:51;99702.50;;;6.09;81.66
74631;BME280;63138;55.082;38.804;2022-10-20T08:13:17;99708.28;;;6.14;82.05
74631;BME280;63138;55.082;38.804;2022-10-20T08:15:42;99708.63;;;6.19;81.54
74631;BME280;63138;55.082;38.804;2022-10-20T08:18:08;99714.50;;;6.15;81.89
74631;BME280;63138;55.082;38.804;2022-10-20T08:20:34;99714.75;;;6.03;82.15
74631;BME280;63138;55.082;38.804;2022-10-20T08:23:00;99717.19;;;5.97;82.12
74631;BME280;63138;55.082;38.804;2022-10-20T08:25:25;99720.97;;;6.04;83.01
74631;BME280;63138;55.082;38.804;2022-10-20T08:27:51;99714.34;;;5.98;82.25
74631;BME280;63138;55.082;38.804;2022-10-20T08:30:18;99720.97;;;6.04;82.26
74631;BME280;63138;55.082;38.804;2022-10-20T08:32:44;99712.19;;;6.02;81.35
74631;BME280;63138;55.082;38.804;2022-10-20T08:35:10;99722.84;;;6.03;81.85
74631;BME280;63138;55.082;38.804;2022-10-20T08:37:36;99723.72;;;6.12;81.06
74631;BME280;63138;55.082;38.804;2022-10-20T08:40:03;99720.28;;;6.20;81.71
74631;BME280;63138;55.082;38.804;2022-10-20T08:42:36;99724.06;;;6.27;81.43
74631;BME280;63138;55.082;38.804;2022-10-20T08:45:04;99725.59;;;6.29;81.46
74631;BME280;63138;55.082;38.804;2022-10-20T08:47:34;99728.59;;;6.26;81.20
74631;BME280;63138;55.082;38.804;2022-10-20T08:50:05;99727.44;;;6.29;81.27
74631;BME280;63138;55.082;38.804;2022-10-20T08:52:34;99727.44;;;6.11;81.40
74631;BME280;63138;55.082;38.804;2022-10-20T08:55:03;99728.06;;;6.23;81.21
74631;BME280;63138;55.082;38.804;2022-10-20T08:57:31;99737.84;;;6.24;80.47
74631;BME280;63138;55.082;38.804;2022-10-20T09:02:38;99736.00;;;6.24;80.48
74631;BME280;63138;55.082;38.804;2022-10-20T09:05:05;99738.47;;;6.36;80.54
74631;BME280;63138;55.082;38.804;2022-10-20T09:07:35;99735.78;;;6.36;79.48
74631;BME280;63138;55.082;38.804;2022-10-20T09:10:32;99742.56;;;6.40;79.11
74631;BME280;63138;55.082;38.804;2022-10-20T09:13:00;99737.75;;;6.34;77.38
74631;BME280;63138;55.082;38.804;2022-10-20T09:15:27;99743.69;;;6.37;77.15
74631;BME280;63138;55.082;38.804;2022-10-20T09:18:00;99744.31;;;6.31;77.08
74631;BME280;63138;55.082;38.804;2022-10-20T09:23:03;99734.91;;;6.35;76.85
74631;BME280;63138;55.082;38.804;2022-10-20T09:25:30;99758.50;;;6.33;76.12
74631;BME280;63138;55.082;38.804;2022-10-20T09:27:56;99757.34;;;6.36;76.57
74631;BME280;63138;55.082;38.804;2022-10-20T09:32:54;99754.56;;;6.27;77.87
74631;BME280;63138;55.082;38.804;2022-10-20T09:35:28;99749.41;;;6.34;77.95
74631;BME280;63138;55.082;38.804;2022-10-20T09:38:00;99747.31;;;6.28;77.99
74631;BME280;63138;55.082;38.804;2022-10-20T09:40:27;99752.66;;;6.38;77.81
74631;BME280;63138;55.082;38.804;2022-10-20T09:43:03;99750.09;;;6.36;76.10
74631;BME280;63138;55.082;38.804;2022-10-20T09:45:32;99752.81;;;6.36;76.10
74631;BME280;63138;55.082;38.804;2022-10-20T09:48:21;99755.81;;;6.33;75.32
74631;BME280;63138;55.082;38.804;2022-10-20T09:50:53;99755.56;;;6.44;75.95
74631;BME280;63138;55.082;38.804;2022-10-20T09:53:32;99758.50;;;6.33;75.05
74631;BME280;63138;55.082;38.804;2022-10-20T09:55:59;99751.88;;;6.27;73.71
74631;BME280;63138;55.082;38.804;2022-10-20T09:58:34;99760.50;;;6.31;73.96
74631;BME280;63138;55.082;38.804;2022-10-20T10:03:45;99755.34;;;6.38;73.98
74631;BME280;63138;55.082;38.804;2022-10-20T10:06:41;99758.66;;;6.49;73.27
74631;BME280;63138;55.082;38.804;2022-10-20T10:09:30;99747.47;;;6.44;72.98
74631;BME280;63138;55.082;38.804;2022-10-20T10:12:24;99756.97;;;6.48;72.32
74631;BME280;63138;55.082;38.804;2022-10-20T10:17:30;99763.75;;;6.53;72.44
74631;BME280;63138;55.082;38.804;2022-10-20T10:19:57;99761.88;;;6.53;71.47
74631;BME280;63138;55.082;38.804;2022-10-20T10:22:23;99759.03;;;6.55;70.90
74631;BME280;63138;55.082;38.804;2022-10-20T10:24:50;99762.66;;;6.45;71.12
74631;BME280;63138;55.082;38.804;2022-10-20T10:27:26;99775.31;;;6.45;70.12
74631;BME280;63138;55.082;38.804;2022-10-20T10:29:55;99775.75;;;6.40;69.77
74631;BME280;63138;55.082;38.804;2022-10-20T10:32:46;99770.59;;;6.47;69.87
74631;BME280;63138;55.082;38.804;2022-10-20T10:37:41;99783.56;;;6.43;69.61
74631;BME280;63138;55.082;38.804;2022-10-20T10:40:35;99781.84;;;6.42;70.08
74631;BME280;63138;55.082;38.804;2022-10-20T10:43:24;99775.22;;;6.37;69.68
74631;BME280;63138;55.082;38.804;2022-10-20T10:46:09;99785.75;;;6.30;69.95
74631;BME280;63138;55.082;38.804;2022-10-20T10:54:35;99776.06;;;6.37;69.45
74631;BME280;63138;55.082;38.804;2022-10-20T10:59:50;99779.78;;;6.36;69.95
74631;BME280;63138;55.082;38.804;2022-10-20T11:02:54;99774.97;;;6.30;69.50
74631;BME280;63138;55.082;38.804;2022-10-20T11:05:54;99781.53;;;6.27;70.27
74631;BME280;63138;55.082;38.804;2022-10-20T11:14:09;99787.44;;;6.13;69.44
74631;BME280;63138;55.082;38.804;2022-10-20T11:27:45;99794.53;;;5.86;71.09
74631;BME280;63138;55.082;38.804;2022-10-20T11:38:56;99801.00;;;5.93;67.20
74631;BME280;63138;55.082;38.804;2022-10-20T11:41:26;99797.28;;;6.04;67.20
74631;BME280;63138;55.082;38.804;2022-10-20T11:44:01;99803.91;;;6.10;67.15
74631;BME280;63138;55.082;38.804;2022-10-20T11:46:39;99803.91;;;6.10;66.56
74631;BME280;63138;55.082;38.804;2022-10-20T11:49:08;99802.94;;;6.11;66.61
74631;BME280;63138;55.082;38.804;2022-10-20T11:56:52;99818.56;;;6.07;66.34
74631;BME280;63138;55.082;38.804;2022-10-20T12:05:29;99817.19;;;6.03;65.43
74631;BME280;63138;55.082;38.804;2022-10-20T12:19:19;99823.66;;;5.73;67.32
74631;BME280;63138;55.082;38.804;2022-10-20T12:22:04;99814.16;;;5.69;67.68
74631;BME280;63138;55.082;38.804;2022-10-20T12:24:39;99828.66;;;5.68;66.77
74631;BME280;63138;55.082;38.804;2022-10-20T12:37:37;99843.16;;;5.57;67.17
74631;BME280;63138;55.082;38.804;2022-10-20T12:42:38;99855.06;;;5.54;67.09
74631;BME280;63138;55.082;38.804;2022-10-20T12:47:59;99859.31;;;5.47;67.21
74631;BME280;63138;55.082;38.804;2022-10-20T12:50:45;99862.19;;;5.46;67.41
74631;BME280;63138;55.082;38.804;2022-10-20T12:55:45;99869.16;;;5.29;68.26
74631;BME280;63138;55.082;38.804;2022-10-20T13:03:37;99879.53;;;5.14;67.95
74631;BME280;63138;55.082;38.804;2022-10-20T13:19:21;99896.81;;;5.02;67.39
74631;BME280;63138;55.082;38.804;2022-10-20T13:21:49;99903.47;;;4.97;67.62
74631;BME280;63138;55.082;38.804;2022-10-20T13:24:35;99891.44;;;4.92;67.36
74631;BME280;63138;55.082;38.804;2022-10-20T13:27:03;99890.88;;;4.88;67.35
74631;BME280;63138;55.082;38.804;2022-10-20T13:29:36;99910.69;;;4.87;66.90
74631;BME280;63138;55.082;38.804;2022-10-20T13:34:48;99900.19;;;4.84;66.07
74631;BME280;63138;55.082;38.804;2022-10-20T13:37:40;99912.94;;;4.82;65.56
74631;BME280;63138;55.082;38.804;2022-10-20T13:42:54;99908.13;;;4.76;64.79
74631;BME280;63138;55.082;38.804;2022-10-20T13:45:29;99921.16;;;4.71;65.23
74631;BME280;63138;55.082;38.804;2022-10-20T13:50:48;99916.34;;;4.65;64.10
74631;BME280;63138;55.082;38.804;2022-10-20T13:53:30;99917.06;;;4.67;64.28
74631;BME280;63138;55.082;38.804;2022-10-20T13:56:05;99923.53;;;4.64;64.99
74631;BME280;63138;55.082;38.804;2022-10-20T13:58:32;99924.69;;;4.62;64.53
74631;BME280;63138;55.082;38.804;2022-10-20T14:01:04;99925.66;;;4.60;64.99
74631;BME280;63138;55.082;38.804;2022-10-20T14:03:39;99918.31;;;4.63;65.16
74631;BME280;63138;55.082;38.804;2022-10-20T14:06:05;99920.00;;;4.64;65.30
74631;BME280;63138;55.082;38.804;2022-10-20T14:08:41;99914.63;;;4.64;66.01
74631;BME280;63138;55.082;38.804;2022-10-20T14:11:07;99929.06;;;4.63;65.84
74631;BME280;63138;55.082;38.804;2022-10-20T14:13:35;99934.44;;;4.63;65.64
74631;BME280;63138;55.082;38.804;2022-10-20T14:16:15;99930.06;;;4.62;65.75
74631;BME280;63138;55.082;38.804;2022-10-20T14:18:42;99923.97;;;4.59;65.71
74631;BME280;63138;55.082;38.804;2022-10-20T14:21:16;99925.66;;;4.60;65.57
74631;BME280;63138;55.082;38.804;2022-10-20T14:23:44;99926.53;;;4.61;65.71
74631;BME280;63138;55.082;38.804;2022-10-20T14:26:20;99931.03;;;4.60;65.79
74631;BME280;63138;55.082;38.804;2022-10-20T14:28:48;99927.66;;;4.58;65.90
74631;BME280;63138;55.082;38.804;2022-10-20T14:31:20;99931.34;;;4.57;66.16
74631;BME280;63138;55.082;38.804;2022-10-20T14:33:47;99933.03;;;4.58;66.82
74631;BME280;63138;55.082;38.804;2022-10-20T14:36:19;99934.75;;;4.59;67.09
74631;BME280;63138;55.082;38.804;2022-10-20T14:38:48;99921.28;;;4.59;67.05
74631;BME280;63138;55.082;38.804;2022-10-20T14:41:26;99927.66;;;4.58;67.48
74631;BME280;63138;55.082;38.804;2022-10-20T14:43:55;99936.72;;;4.57;66.95
74631;BME280;63138;55.082;38.804;2022-10-20T14:46:28;99931.59;;;4.54;67.20
74631;BME280;63138;55.082;38.804;2022-10-20T14:48:57;99938.66;;;4.55;67.18
74631;BME280;63138;55.082;38.804;2022-10-20T14:51:47;99936.28;;;4.52;67.51
74631;BME280;63138;55.082;38.804;2022-10-20T14:54:45;99940.06;;;4.50;67.48
74631;BME280;63138;55.082;38.804;2022-10-20T14:59:55;99947.31;;;4.49;68.26
74631;BME280;63138;55.082;38.804;2022-10-20T15:02:29;99945.88;;;4.45;68.20
74631;BME280;63138;55.082;38.804;2022-10-20T15:05:23;99938.09;;;4.42;68.43
74631;BME280;63138;55.082;38.804;2022-10-20T15:07:55;99947.28;;;4.39;68.81
74631;BME280;63138;55.082;38.804;2022-10-20T15:10:23;99943.84;;;4.37;69.04
74631;BME280;63138;55.082;38.804;2022-10-20T15:12:51;99942.00;;;4.28;69.16
74631;BME280;63138;55.082;38.804;2022-10-20T15:15:25;99947.69;;;4.35;68.62
74631;BME280;63138;55.082;38.804;2022-10-20T15:18:08;99942.44;;;4.33;68.66
74631;BME280;63138;55.082;38.804;2022-10-20T15:20:35;99952.63;;;4.30;67.25
74631;BME280;63138;55.082;38.804;2022-10-20T15:23:19;99955.03;;;4.33;66.51
74631;BME280;63138;55.082;38.804;2022-10-20T15:28:26;99949.22;;;4.28;64.81
74631;BME280;63138;55.082;38.804;2022-10-20T15:30:54;99945.69;;;4.27;64.42
74631;BME280;63138;55.082;38.804;2022-10-20T15:33:20;99952.88;;;4.27;63.71
74631;BME280;63138;55.082;38.804;2022-10-20T15:35:50;99959.25;;;4.26;63.48
74631;BME280;63138;55.082;38.804;2022-10-20T15:38:23;99950.75;;;4.20;63.51
74631;BME280;63138;55.082;38.804;2022-10-20T15:40:49;99951.88;;;4.18;63.71
74631;BME280;63138;55.082;38.804;2022-10-20T15:43:16;99963.47;;;4.18;64.22
74631;BME280;63138;55.082;38.804;2022-10-20T15:45:46;99964.75;;;4.14;64.58
74631;BME280;63138;55.082;38.804;2022-10-20T15:48:12;99967.81;;;4.10;64.83